Time;durP1;ratioP1;P1;durP2;ratioP2;P2;SDS_P1;SDS_P2;PMS_P1;PMS_P2;Temp;Humidity;BMP_temperature;BMP_pressure;BME280_temperature;BME280_humidity;BME280_pressure;Samples;Min_cycle;Max_cycle;Signal;HPM_P1;HPM_P2
2022/06/26 00:00:06;;;;;;;10.25;4.88;;;25.70;55.60;;;;;;6158909;28;81426;-67
2022/06/26 00:03:08;;;;;;;8.70;5.28;;;25.60;55.50;;;;;;6159837;28;80534;-68
2022/06/26 00:06:09;;;;;;;6.35;4.40;;;25.60;55.60;;;;;;6147575;28;81130;-68
2022/06/26 00:09:09;;;;;;;8.73;4.88;;;25.70;55.60;;;;;;6154890;28;80385;-68
2022/06/26 00:12:10;;;;;;;7.25;5.28;;;25.80;56.00;;;;;;6150785;28;81516;-68
2022/06/26 00:15:10;;;;;;;5.20;3.80;;;25.90;56.20;;;;;;6158137;28;81849;-67
2022/06/26 00:18:11;;;;;;;8.48;5.13;;;25.90;55.20;;;;;;6158669;28;81666;-66
2022/06/26 00:21:11;;;;;;;7.85;4.95;;;26.00;55.40;;;;;;6154457;28;80762;-67
2022/06/26 00:24:12;;;;;;;6.93;4.78;;;26.00;55.10;;;;;;6159301;28;80095;-67
2022/06/26 00:27:12;;;;;;;9.32;4.75;;;26.00;54.70;;;;;;6159283;28;80875;-66
2022/06/26 00:30:13;;;;;;;6.80;4.20;;;26.10;55.10;;;;;;6158138;28;80374;-66
2022/06/26 00:33:13;;;;;;;8.10;4.80;;;26.10;55.10;;;;;;6157562;28;81492;-66
2022/06/26 00:36:14;;;;;;;8.57;4.85;;;26.10;54.50;;;;;;6159627;28;81382;-67
2022/06/26 00:39:14;;;;;;;8.18;4.80;;;26.10;54.50;;;;;;6156837;28;80460;-67
2022/06/26 00:42:15;;;;;;;8.13;5.28;;;26.10;54.50;;;;;;6143663;28;82965;-68
2022/06/26 00:45:15;;;;;;;6.90;4.78;;;26.10;54.00;;;;;;6159372;28;80859;-67
2022/06/26 00:48:16;;;;;;;7.50;4.82;;;26.10;53.90;;;;;;6157066;28;81538;-67
2022/06/26 00:51:16;;;;;;;12.43;5.00;;;26.00;54.30;;;;;;6158481;28;80322;-66
2022/06/26 00:54:17;;;;;;;6.75;4.80;;;26.00;54.50;;;;;;6149329;28;82027;-66
2022/06/26 00:57:17;;;;;;;7.70;4.65;;;26.00;55.00;;;;;;6155177;28;81379;-66
2022/06/26 01:00:20;;;;;;;8.45;4.43;;;26.00;54.10;;;;;;6153312;28;81888;-66
2022/06/26 01:03:20;;;;;;;7.50;4.47;;;25.90;53.80;;;;;;6157381;28;83718;-66
2022/06/26 01:06:21;;;;;;;11.35;4.70;;;25.90;53.60;;;;;;6159067;28;80477;-67
2022/06/26 01:09:21;;;;;;;6.40;3.95;;;26.00;53.40;;;;;;6160045;28;80416;-66
2022/06/26 01:12:23;;;;;;;7.13;4.47;;;26.00;53.30;;;;;;6154831;28;83318;-66
2022/06/26 01:15:24;;;;;;;7.45;4.38;;;26.00;53.80;;;;;;6151295;28;82498;-66
2022/06/26 01:18:25;;;;;;;9.48;5.05;;;26.00;53.80;;;;;;6156552;28;81841;-66
2022/06/26 01:21:26;;;;;;;8.32;4.85;;;26.00;54.10;;;;;;6157075;28;83765;-66
2022/06/26 01:24:26;;;;;;;8.77;4.40;;;26.00;53.50;;;;;;6156404;28;83328;-68
2022/06/26 01:27:27;;;;;;;6.95;4.63;;;26.00;53.50;;;;;;6158097;28;80607;-68
2022/06/26 01:30:28;;;;;;;9.00;5.05;;;25.90;53.60;;;;;;6156857;28;83173;-70
2022/06/26 01:33:28;;;;;;;10.60;5.30;;;26.00;54.00;;;;;;6151639;28;81520;-68
2022/06/26 01:36:29;;;;;;;9.77;4.80;;;26.00;54.20;;;;;;6154401;28;83397;-68
2022/06/26 01:39:31;;;;;;;10.80;4.70;;;26.00;54.10;;;;;;6157138;28;82751;-68
2022/06/26 01:42:31;;;;;;;7.82;4.40;;;26.00;53.60;;;;;;6149165;28;80223;-68
2022/06/26 01:45:32;;;;;;;7.72;4.55;;;25.90;53.40;;;;;;6144889;28;81433;-68
2022/06/26 01:48:32;;;;;;;7.05;4.85;;;25.90;53.60;;;;;;6156352;28;82865;-68
2022/06/26 01:51:33;;;;;;;8.10;4.60;;;25.90;53.80;;;;;;6158980;28;83300;-67
2022/06/26 01:54:34;;;;;;;6.55;4.32;;;25.90;53.60;;;;;;6156808;28;82173;-67
2022/06/26 01:57:35;;;;;;;7.75;4.85;;;25.90;54.00;;;;;;6158015;28;80307;-66
2022/06/26 02:00:48;;;;;;;7.57;4.20;;;25.90;53.70;;;;;;6160193;28;81745;-67
2022/06/26 02:03:48;;;;;;;9.18;5.32;;;25.90;54.30;;;;;;6161624;28;81620;-67
2022/06/26 02:06:49;;;;;;;6.93;4.75;;;25.90;54.60;;;;;;6162162;28;80322;-67
2022/06/26 02:13:36;;;;;;;5.75;4.72;;;25.80;54.60;;;;;;6171277;28;83453;-67
2022/06/26 02:16:38;;;;;;;6.43;5.10;;;25.70;55.10;;;;;;6150366;28;82680;-67
2022/06/26 02:19:40;;;;;;;9.88;5.65;;;25.60;55.20;;;;;;6148775;28;82111;-67
2022/06/26 02:22:41;;;;;;;6.85;4.90;;;25.50;55.10;;;;;;6160275;28;82115;-67
2022/06/26 02:25:43;;;;;;;8.98;4.82;;;25.50;55.30;;;;;;6174154;28;83507;-67
2022/06/26 02:28:44;;;;;;;8.27;4.70;;;25.50;55.50;;;;;;6152607;28;83429;-67
2022/06/26 02:31:44;;;;;;;7.90;5.00;;;25.60;55.20;;;;;;6147776;28;83211;-67
2022/06/26 02:34:45;;;;;;;7.15;4.78;;;25.70;55.30;;;;;;6158482;28;83205;-67
2022/06/26 02:37:45;;;;;;;15.35;4.88;;;25.70;55.40;;;;;;6143704;28;83145;-67
2022/06/26 02:40:46;;;;;;;8.60;5.25;;;25.70;54.90;;;;;;6148079;28;81457;-66
2022/06/26 02:43:48;;;;;;;11.65;4.90;;;25.70;55.00;;;;;;6154652;28;82904;-67
2022/06/26 02:46:48;;;;;;;10.68;5.20;;;25.70;54.60;;;;;;6159454;28;82795;-68
2022/06/26 02:49:49;;;;;;;8.85;4.35;;;25.60;54.40;;;;;;6159321;28;83719;-67
2022/06/26 02:52:50;;;;;;;8.25;5.10;;;25.60;54.60;;;;;;6159700;28;82721;-67
2022/06/26 02:55:51;;;;;;;7.45;5.38;;;25.60;54.60;;;;;;6164955;28;83188;-67
2022/06/26 02:58:53;;;;;;;10.85;4.82;;;25.50;54.60;;;;;;6162845;28;81573;-67
2022/06/26 03:01:54;;;;;;;9.38;5.57;;;25.50;54.70;;;;;;6156545;28;83233;-68
2022/06/26 03:05:17;;;;;;;9.05;4.75;;;25.50;54.90;;;;;;6174739;28;83606;-68
2022/06/26 03:08:17;;;;;;;8.13;5.10;;;25.50;54.80;;;;;;6159594;28;83481;-67
2022/06/26 03:11:18;;;;;;;8.73;4.20;;;25.40;54.80;;;;;;6160867;28;80962;-68
2022/06/26 03:14:18;;;;;;;6.25;5.05;;;25.40;55.10;;;;;;6158938;28;81828;-68
2022/06/26 03:17:24;;;;;;;8.73;4.82;;;25.50;55.10;;;;;;6158947;28;84856;-67
2022/06/26 03:20:25;;;;;;;8.50;4.75;;;25.50;54.80;;;;;;6160711;28;81002;-67
2022/06/26 03:24:01;;;;;;;8.13;4.82;;;25.50;54.80;;;;;;6159574;28;83499;-66
2022/06/26 03:26:46;;;;;;;7.10;4.28;;;25.50;54.90;;;;;;6158346;28;82768;-66
2022/06/26 03:29:48;;;;;;;6.85;4.35;;;25.50;54.60;;;;;;6158816;28;82289;-67
2022/06/26 03:32:48;;;;;;;6.18;4.53;;;25.60;55.10;;;;;;6158205;28;82661;-67
2022/06/26 03:35:49;;;;;;;5.85;4.20;;;25.60;54.70;;;;;;6153471;28;83106;-66
2022/06/26 03:38:49;;;;;;;6.43;4.22;;;25.60;54.60;;;;;;6146575;28;86977;-67
2022/06/26 03:42:02;;;;;;;8.32;5.18;;;25.70;54.70;;;;;;6144690;28;83603;-66
2022/06/26 03:45:07;;;;;;;6.78;4.25;;;25.70;54.60;;;;;;6158220;28;83299;-67
2022/06/26 03:48:08;;;;;;;9.00;4.20;;;25.70;54.50;;;;;;6146560;28;80726;-66
2022/06/26 03:51:09;;;;;;;7.20;4.30;;;25.70;54.70;;;;;;6160086;28;80404;-67
2022/06/26 03:54:09;;;;;;;9.57;4.75;;;25.70;54.80;;;;;;6158925;28;82702;-67
2022/06/26 03:57:10;;;;;;;7.45;4.50;;;25.70;54.80;;;;;;6158391;28;83288;-67
2022/06/26 04:00:11;;;;;;;10.60;4.32;;;25.70;54.60;;;;;;6158888;28;80295;-67
2022/06/26 04:03:17;;;;;;;5.85;4.00;;;25.70;54.50;;;;;;6163711;28;80433;-67
2022/06/26 04:06:17;;;;;;;6.90;3.95;;;25.70;54.40;;;;;;6152027;28;83313;-67
2022/06/26 04:09:19;;;;;;;5.60;4.55;;;25.70;54.40;;;;;;6157722;28;82855;-67
2022/06/26 04:12:20;;;;;;;5.45;4.38;;;25.70;54.10;;;;;;6158343;28;81582;-67
2022/06/26 04:15:21;;;;;;;8.40;4.65;;;25.70;54.40;;;;;;6158361;28;80289;-69
2022/06/26 04:18:22;;;;;;;5.43;4.05;;;25.70;54.10;;;;;;6157491;28;80861;-70
2022/06/26 04:21:23;;;;;;;7.88;4.80;;;25.70;53.90;;;;;;6157023;28;83588;-70
2022/06/26 04:24:23;;;;;;;6.30;4.63;;;25.70;53.80;;;;;;6157795;28;83107;-71
2022/06/26 04:27:24;;;;;;;6.25;4.60;;;25.70;53.90;;;;;;6152329;28;82956;-71
2022/06/26 04:30:24;;;;;;;6.32;4.60;;;25.70;53.70;;;;;;6153347;28;80578;-71
2022/06/26 04:33:25;;;;;;;8.40;4.63;;;25.70;53.70;;;;;;6157741;28;82813;-71
2022/06/26 04:36:25;;;;;;;8.27;4.72;;;25.70;53.60;;;;;;6158020;28;82933;-71
2022/06/26 04:39:26;;;;;;;7.35;5.00;;;25.70;53.70;;;;;;6150829;28;82223;-68
2022/06/26 04:42:26;;;;;;;8.30;4.88;;;25.70;53.80;;;;;;6157617;28;83436;-70
2022/06/26 04:45:27;;;;;;;10.00;5.25;;;25.70;54.60;;;;;;6157055;28;83176;-71
2022/06/26 04:48:31;;;;;;;7.63;4.95;;;25.70;53.90;;;;;;6161217;28;83427;-70
2022/06/26 04:51:35;;;;;;;8.40;4.90;;;25.70;54.20;;;;;;6157397;28;83421;-69
2022/06/26 04:54:36;;;;;;;6.65;4.82;;;25.70;54.30;;;;;;6155559;28;81416;-68
2022/06/26 04:57:37;;;;;;;7.22;5.07;;;25.70;54.60;;;;;;6155259;28;82587;-69
2022/06/26 05:00:38;;;;;;;11.82;5.82;;;25.70;54.30;;;;;;6158306;28;80705;-70
2022/06/26 05:03:48;;;;;;;12.57;5.40;;;25.80;54.50;;;;;;6157116;28;83052;-68
2022/06/26 05:07:12;;;;;;;8.02;5.07;;;25.80;55.30;;;;;;6148243;28;80285;-66
2022/06/26 05:10:13;;;;;;;10.43;5.30;;;25.80;54.90;;;;;;6171048;28;82851;-72
2022/06/26 05:13:26;;;;;;;7.70;4.68;;;25.80;54.60;;;;;;6149820;28;83734;-66
2022/06/26 05:16:45;;;;;;;9.15;5.15;;;25.90;54.80;;;;;;6150898;28;80436;-66
2022/06/26 05:19:48;;;;;;;7.97;5.07;;;25.90;55.00;;;;;;6155399;28;82961;-68
2022/06/26 05:22:48;;;;;;;9.45;5.22;;;25.90;54.40;;;;;;6155029;28;83293;-67
2022/06/26 05:25:50;;;;;;;10.38;4.65;;;25.90;55.80;;;;;;6156112;28;81505;-68
2022/06/26 05:28:50;;;;;;;15.75;4.28;;;26.00;54.80;;;;;;6158602;28;82349;-69
2022/06/26 05:31:51;;;;;;;9.38;4.78;;;26.00;55.00;;;;;;6161600;28;83064;-67
2022/06/26 05:34:51;;;;;;;9.80;5.22;;;26.00;54.70;;;;;;6159073;28;80530;-66
2022/06/26 05:37:52;;;;;;;9.48;5.18;;;26.00;54.70;;;;;;6154438;28;83401;-73
2022/06/26 05:40:52;;;;;;;5.53;4.60;;;26.00;54.80;;;;;;6161872;28;80770;-67
2022/06/26 05:43:54;;;;;;;8.52;5.07;;;26.10;55.20;;;;;;6160384;28;82026;-67
2022/06/26 05:46:54;;;;;;;7.53;4.72;;;26.10;55.30;;;;;;6154092;28;82304;-68
2022/06/26 05:50:14;;;;;;;8.73;5.05;;;26.10;55.20;;;;;;6157716;28;83568;-68
2022/06/26 05:53:38;;;;;;;10.52;4.50;;;26.10;55.30;;;;;;6140419;28;85352;-68
2022/06/26 05:57:11;;;;;;;9.23;4.75;;;26.20;55.80;;;;;;6156176;28;80310;-68
2022/06/26 06:00:30;;;;;;;7.53;5.10;;;26.20;55.30;;;;;;6160708;28;80181;-68
2022/06/26 06:03:30;;;;;;;12.32;5.63;;;26.30;55.30;;;;;;6146684;28;86302;-68
2022/06/26 06:06:32;;;;;;;5.80;4.22;;;26.20;55.50;;;;;;6158939;28;82981;-68
2022/06/26 06:09:33;;;;;;;6.55;4.90;;;26.30;55.70;;;;;;6154281;28;82062;-70
2022/06/26 06:12:34;;;;;;;8.32;5.95;;;26.30;55.50;;;;;;6145817;28;83586;-68
2022/06/26 06:15:34;;;;;;;16.38;9.25;;;26.20;55.80;;;;;;6159868;28;84831;-67
2022/06/26 06:18:35;;;;;;;17.58;9.82;;;26.20;56.10;;;;;;6157402;28;80402;-67
2022/06/26 06:21:35;;;;;;;15.88;9.70;;;26.20;56.00;;;;;;6159006;28;86715;-69
2022/06/26 06:24:36;;;;;;;20.45;10.45;;;26.20;56.60;;;;;;6159894;28;83182;-68
2022/06/26 06:27:37;;;;;;;20.92;12.07;;;26.20;57.10;;;;;;6152198;28;83232;-66
2022/06/26 06:30:40;;;;;;;24.85;13.27;;;26.20;56.80;;;;;;6138879;28;83214;-66
2022/06/26 06:33:41;;;;;;;40.92;18.65;;;26.20;56.90;;;;;;6154024;28;85491;-67
2022/06/26 06:36:44;;;;;;;26.08;14.85;;;26.20;57.20;;;;;;6154052;28;85894;-65
2022/06/26 06:39:46;;;;;;;40.20;18.15;;;26.10;57.10;;;;;;6148981;28;87185;-68
2022/06/26 06:42:47;;;;;;;42.08;18.35;;;26.10;57.20;;;;;;6153633;28;85666;-65
2022/06/26 06:45:48;;;;;;;25.40;12.98;;;26.10;56.90;;;;;;6144919;28;85805;-66
2022/06/26 06:48:49;;;;;;;24.65;10.48;;;26.20;56.70;;;;;;6157614;28;83128;-66
2022/06/26 06:52:05;;;;;;;20.88;11.40;;;26.20;56.30;;;;;;6155641;28;85269;-66
2022/06/26 06:55:05;;;;;;;13.25;7.60;;;26.30;56.60;;;;;;6154792;28;84108;-66
2022/06/26 06:58:08;;;;;;;14.20;7.35;;;26.30;56.20;;;;;;6155285;28;83218;-71
2022/06/26 07:01:09;;;;;;;12.60;6.82;;;26.30;56.30;;;;;;6157302;28;82214;-75
2022/06/26 07:04:09;;;;;;;11.07;6.75;;;26.30;56.60;;;;;;6152982;28;83100;-74
2022/06/26 07:07:10;;;;;;;10.80;6.22;;;26.40;56.90;;;;;;6154286;28;82948;-68
2022/06/26 07:10:11;;;;;;;11.90;5.53;;;26.40;56.50;;;;;;6153134;28;82825;-66
2022/06/26 07:13:12;;;;;;;7.05;5.03;;;26.40;55.30;;;;;;6158472;28;83161;-65
2022/06/26 07:16:12;;;;;;;17.20;7.97;;;26.40;55.30;;;;;;6153542;28;80362;-67
2022/06/26 07:19:13;;;;;;;12.25;6.35;;;26.30;54.50;;;;;;6155524;28;83323;-67
2022/06/26 07:22:13;;;;;;;14.23;7.03;;;26.30;54.30;;;;;;6152293;28;80244;-67
2022/06/26 07:25:14;;;;;;;10.10;5.40;;;26.40;54.50;;;;;;6156005;28;82280;-68
2022/06/26 07:28:18;;;;;;;10.73;5.80;;;26.40;54.40;;;;;;6155445;28;82717;-67
2022/06/26 07:31:20;;;;;;;6.47;4.75;;;26.40;54.20;;;;;;6147161;28;83040;-66
2022/06/26 07:34:25;;;;;;;9.50;4.55;;;26.30;52.90;;;;;;6145330;28;82890;-68
2022/06/26 07:37:26;;;;;;;6.95;4.65;;;26.40;53.20;;;;;;6143544;28;83061;-68
2022/06/26 07:40:26;;;;;;;8.90;4.35;;;26.40;53.40;;;;;;6150439;28;83126;-68
2022/06/26 07:43:30;;;;;;;9.43;4.50;;;26.40;53.60;;;;;;6134907;28;81726;-68
2022/06/26 07:46:31;;;;;;;9.57;4.22;;;26.40;53.30;;;;;;6151910;28;83700;-67
2022/06/26 07:49:32;;;;;;;9.80;4.28;;;26.40;53.40;;;;;;6151187;28;83719;-67
2022/06/26 07:52:36;;;;;;;11.75;4.68;;;26.50;53.40;;;;;;6153660;28;83231;-72
2022/06/26 07:55:37;;;;;;;12.07;4.30;;;26.50;53.20;;;;;;6152596;28;80326;-72
2022/06/26 07:58:37;;;;;;;19.48;4.53;;;26.60;53.10;;;;;;6151269;28;82235;-75
2022/06/26 08:01:38;;;;;;;12.07;5.40;;;26.60;53.10;;;;;;6158760;28;80507;-77
2022/06/26 08:04:38;;;;;;;18.25;5.80;;;26.60;53.70;;;;;;6158089;28;80360;-71
2022/06/26 08:07:39;;;;;;;15.77;6.53;;;26.60;54.50;;;;;;6157676;28;80558;-80
2022/06/26 08:10:39;;;;;;;16.05;5.38;;;26.60;54.90;;;;;;6156979;28;80379;-66
2022/06/26 08:13:40;;;;;;;17.48;5.93;;;26.50;54.50;;;;;;6158108;28;80771;-67
2022/06/26 08:16:40;;;;;;;10.20;4.35;;;26.60;54.70;;;;;;6156198;28;83342;-66
2022/06/26 08:19:41;;;;;;;13.23;4.63;;;26.50;53.30;;;;;;6157406;28;80317;-65
2022/06/26 08:22:41;;;;;;;7.32;3.83;;;26.50;53.30;;;;;;6159136;28;81075;-67
2022/06/26 08:25:42;;;;;;;8.07;4.05;;;26.60;53.10;;;;;;6159316;28;80276;-65
2022/06/26 08:28:42;;;;;;;12.18;4.60;;;26.50;53.10;;;;;;6155533;28;81135;-75
2022/06/26 08:31:43;;;;;;;5.82;3.85;;;26.60;53.10;;;;;;6159615;28;80636;-72
2022/06/26 08:34:43;;;;;;;10.55;4.47;;;26.60;54.00;;;;;;6159226;28;80785;-71
2022/06/26 08:37:45;;;;;;;12.65;4.75;;;26.60;53.00;;;;;;6159434;28;80474;-64
2022/06/26 08:40:46;;;;;;;10.65;4.80;;;26.60;53.30;;;;;;6158870;28;80793;-66
2022/06/26 08:43:46;;;;;;;7.85;4.97;;;26.60;53.30;;;;;;6158817;28;80367;-65
2022/06/26 08:46:47;;;;;;;11.00;4.53;;;26.60;52.40;;;;;;6156234;28;80339;-65
2022/06/26 08:49:47;;;;;;;9.15;4.07;;;26.60;52.60;;;;;;6158416;28;80416;-66
2022/06/26 08:52:48;;;;;;;6.45;4.30;;;26.60;52.50;;;;;;6156355;28;80189;-72
2022/06/26 08:55:48;;;;;;;7.00;3.63;;;26.70;53.00;;;;;;6141026;28;80450;-68
2022/06/26 08:58:49;;;;;;;8.80;4.13;;;26.70;53.00;;;;;;6152706;28;80731;-66
2022/06/26 09:01:49;;;;;;;8.35;4.00;;;26.70;52.50;;;;;;6160918;28;81908;-66
2022/06/26 09:04:50;;;;;;;7.30;4.45;;;26.70;52.00;;;;;;6158729;28;80765;-67
2022/06/26 09:07:52;;;;;;;5.60;3.95;;;26.70;52.70;;;;;;6158287;28;81498;-67
2022/06/26 09:10:52;;;;;;;8.75;4.13;;;26.80;53.10;;;;;;6154897;28;81115;-67
2022/06/26 09:13:53;;;;;;;4.25;3.00;;;26.80;52.10;;;;;;6157414;28;80960;-66
2022/06/26 09:16:53;;;;;;;9.55;4.45;;;26.80;52.20;;;;;;6161021;28;80484;-67
2022/06/26 09:19:54;;;;;;;6.18;4.15;;;26.80;52.00;;;;;;6159283;28;82757;-67
2022/06/26 09:22:54;;;;;;;6.35;3.53;;;26.80;51.80;;;;;;6155347;28;82322;-66
2022/06/26 09:25:55;;;;;;;9.32;3.80;;;26.90;52.30;;;;;;6151169;28;80396;-66
2022/06/26 09:28:55;;;;;;;5.55;3.53;;;26.90;51.80;;;;;;6158507;28;81563;-66
2022/06/26 09:31:56;;;;;;;5.75;3.83;;;26.90;51.20;;;;;;6155228;28;80578;-66
2022/06/26 09:34:56;;;;;;;5.80;3.60;;;26.90;51.10;;;;;;6142648;28;83554;-67
2022/06/26 09:37:57;;;;;;;5.30;3.20;;;26.90;51.00;;;;;;6153249;28;81845;-66
2022/06/26 09:40:57;;;;;;;6.35;3.38;;;26.90;50.90;;;;;;6158367;28;81029;-66
2022/06/26 09:43:58;;;;;;;7.97;4.40;;;26.90;51.30;;;;;;6151954;28;81548;-66
2022/06/26 09:46:58;;;;;;;8.02;3.60;;;26.90;51.90;;;;;;6160610;28;82288;-68
2022/06/26 09:49:59;;;;;;;7.18;3.63;;;26.90;52.70;;;;;;6164487;28;80939;-65
2022/06/26 09:52:59;;;;;;;16.38;3.95;;;26.90;52.70;;;;;;6152089;28;80858;-67
2022/06/26 09:56:00;;;;;;;6.90;3.53;;;26.90;52.80;;;;;;6158306;28;80622;-66
2022/06/26 09:59:00;;;;;;;10.68;5.20;;;27.00;53.30;;;;;;6161499;28;80594;-67
2022/06/26 10:08:39;;;;;;;92.35;42.33;;;27.10;54.50;;;;;;6138012;28;88296;-74
2022/06/26 10:11:40;;;;;;;87.85;44.22;;;27.20;54.60;;;;;;6152220;28;84429;-72
2022/06/26 10:14:41;;;;;;;130.55;69.15;;;27.30;54.90;;;;;;6148124;28;84170;-75
2022/06/26 10:17:42;;;;;;;177.73;101.18;;;27.40;54.60;;;;;;6148973;28;83166;-66
2022/06/26 10:20:42;;;;;;;177.40;104.25;;;27.40;53.30;;;;;;6139276;28;85796;-67
2022/06/26 10:23:43;;;;;;;195.35;125.78;;;27.40;54.00;;;;;;6150660;28;87900;-67
2022/06/26 10:26:43;;;;;;;258.65;152.45;;;27.40;53.20;;;;;;6154470;28;85980;-67
2022/06/26 10:29:44;;;;;;;199.27;116.75;;;27.40;53.60;;;;;;6151977;28;85508;-68
2022/06/26 10:32:44;;;;;;;169.90;108.88;;;27.50;53.40;;;;;;6154586;28;85517;-67
2022/06/26 10:35:45;;;;;;;173.35;122.30;;;27.40;52.70;;;;;;6145231;28;87991;-67
2022/06/26 10:38:45;;;;;;;135.88;89.82;;;27.50;53.00;;;;;;6155152;28;88079;-70
2022/06/26 10:45:05;;;;;;;63.75;38.80;;;27.50;53.20;;;;;;6158149;28;83168;-75
2022/06/26 10:48:07;;;;;;;45.17;28.20;;;27.60;54.20;;;;;;6153392;28;84107;-66
2022/06/26 10:51:07;;;;;;;32.90;19.27;;;27.50;53.60;;;;;;6158340;28;84431;-72
2022/06/26 10:54:08;;;;;;;21.83;13.50;;;27.50;54.50;;;;;;6158242;28;86666;-76
2022/06/26 10:57:08;;;;;;;14.77;8.75;;;27.50;53.90;;;;;;6155607;28;84093;-65
2022/06/26 11:00:11;;;;;;;13.45;6.55;;;27.50;54.70;;;;;;6160137;28;83014;-65
2022/06/26 11:03:11;;;;;;;16.50;6.00;;;27.50;54.40;;;;;;6160498;28;80978;-66
2022/06/26 11:06:12;;;;;;;6.75;4.82;;;27.60;54.40;;;;;;6160683;28;81054;-67
2022/06/26 11:09:12;;;;;;;5.78;4.18;;;27.50;54.70;;;;;;6155562;28;80695;-66
2022/06/26 11:12:13;;;;;;;4.60;3.70;;;27.50;53.50;;;;;;6158846;28;80412;-66
2022/06/26 11:15:14;;;;;;;8.80;4.35;;;27.50;51.50;;;;;;6157025;28;80547;-67
2022/06/26 11:18:15;;;;;;;8.27;4.50;;;27.50;51.80;;;;;;6155879;28;80862;-68
2022/06/26 11:21:15;;;;;;;11.60;5.22;;;27.50;52.50;;;;;;6160122;28;80478;-68
2022/06/26 11:24:16;;;;;;;15.07;6.55;;;27.50;52.00;;;;;;6154183;28;81122;-67
2022/06/26 11:27:16;;;;;;;16.73;7.47;;;27.50;51.40;;;;;;6157540;28;84518;-68
2022/06/26 11:30:17;;;;;;;15.55;5.78;;;27.50;51.00;;;;;;6158691;28;80867;-68
2022/06/26 11:33:17;;;;;;;8.55;5.32;;;27.50;50.80;;;;;;6157437;28;80432;-68
2022/06/26 11:36:18;;;;;;;8.77;4.95;;;27.60;50.30;;;;;;6160607;28;81107;-67
2022/06/26 11:39:18;;;;;;;8.15;4.00;;;27.60;50.30;;;;;;6160022;28;80521;-68
2022/06/26 11:42:22;;;;;;;8.63;4.28;;;27.60;48.80;;;;;;6153084;28;80586;-68
2022/06/26 11:45:23;;;;;;;7.97;3.67;;;27.60;50.20;;;;;;6155986;28;82431;-68
2022/06/26 11:48:24;;;;;;;6.43;3.95;;;27.50;49.10;;;;;;6160078;28;80681;-69
2022/06/26 11:51:25;;;;;;;14.32;4.13;;;27.60;48.60;;;;;;6159551;28;80477;-68
2022/06/26 11:54:25;;;;;;;4.80;3.40;;;27.60;49.80;;;;;;6160174;28;80277;-67
2022/06/26 11:57:26;;;;;;;6.65;3.03;;;27.60;49.10;;;;;;6154109;28;80341;-68
2022/06/26 12:00:26;;;;;;;7.50;3.60;;;27.60;48.80;;;;;;6144021;28;81761;-69
2022/06/26 12:03:27;;;;;;;3.75;3.30;;;27.60;47.80;;;;;;6137643;28;80237;-69
2022/06/26 12:06:27;;;;;;;6.45;3.60;;;27.60;48.50;;;;;;6148825;28;80294;-67
2022/06/26 12:09:28;;;;;;;5.78;3.67;;;27.60;48.60;;;;;;6155498;28;87243;-67
2022/06/26 12:12:29;;;;;;;3.60;3.00;;;27.60;48.30;;;;;;6155481;28;81315;-66
2022/06/26 12:15:29;;;;;;;4.80;3.85;;;27.60;48.60;;;;;;6159602;28;80995;-67
2022/06/26 12:18:29;;;;;;;4.38;3.40;;;27.60;48.40;;;;;;6157779;28;80388;-66
2022/06/26 12:21:30;;;;;;;4.93;3.40;;;27.60;48.50;;;;;;6153300;28;80422;-66
2022/06/26 12:24:30;;;;;;;4.47;3.25;;;27.60;48.60;;;;;;6153709;28;80359;-66
2022/06/26 12:27:31;;;;;;;4.05;3.13;;;27.60;47.90;;;;;;6150754;28;80928;-65
2022/06/26 12:30:33;;;;;;;7.00;3.53;;;27.60;48.30;;;;;;6154882;28;80415;-66
2022/06/26 12:33:33;;;;;;;9.57;2.92;;;27.60;47.80;;;;;;6140247;28;80649;-65
2022/06/26 12:36:34;;;;;;;6.35;3.20;;;27.60;48.30;;;;;;6152316;28;80656;-66
2022/06/26 12:39:34;;;;;;;7.10;3.38;;;27.60;47.20;;;;;;6153698;28;80531;-66
2022/06/26 12:42:34;;;;;;;13.35;3.53;;;27.60;47.80;;;;;;6157798;28;80548;-66
2022/06/26 12:45:35;;;;;;;7.20;3.03;;;27.60;48.50;;;;;;6150873;28;80281;-66
2022/06/26 12:48:35;;;;;;;5.38;3.17;;;27.60;49.10;;;;;;6145202;28;80374;-66
2022/06/26 12:51:36;;;;;;;6.85;3.50;;;27.60;47.90;;;;;;6158497;28;80827;-65
2022/06/26 12:54:37;;;;;;;5.70;3.42;;;27.70;49.10;;;;;;6158818;28;80478;-66
2022/06/26 12:57:37;;;;;;;4.57;2.70;;;27.70;47.60;;;;;;6150738;28;81218;-76
2022/06/26 13:00:37;;;;;;;6.13;3.03;;;27.70;47.90;;;;;;6158609;28;80921;-67
2022/06/26 13:03:38;;;;;;;5.32;2.80;;;27.60;48.10;;;;;;6156682;28;80563;-68
2022/06/26 13:06:38;;;;;;;5.15;3.38;;;27.70;49.20;;;;;;6158174;28;81058;-67
2022/06/26 13:09:39;;;;;;;4.25;2.92;;;27.70;47.30;;;;;;6158495;28;81510;-67
2022/06/26 13:12:39;;;;;;;4.30;3.40;;;27.70;48.30;;;;;;6152324;28;83562;-66
2022/06/26 13:15:40;;;;;;;5.55;2.95;;;27.70;48.50;;;;;;6147861;28;80894;-65
2022/06/26 13:18:40;;;;;;;5.38;2.88;;;27.70;48.60;;;;;;6157917;28;80286;-66
2022/06/26 13:21:41;;;;;;;6.43;3.00;;;27.70;47.70;;;;;;6157165;28;80628;-67
2022/06/26 13:24:41;;;;;;;5.13;2.92;;;27.70;47.80;;;;;;6155606;28;80665;-66
2022/06/26 13:27:42;;;;;;;4.40;3.15;;;27.70;48.00;;;;;;6153185;28;80301;-66
2022/06/26 13:30:42;;;;;;;5.43;3.28;;;27.70;48.80;;;;;;6152750;28;80750;-68
2022/06/26 13:33:43;;;;;;;3.38;2.97;;;27.70;49.40;;;;;;6157576;28;80548;-66
2022/06/26 13:36:43;;;;;;;4.68;3.10;;;27.70;48.30;;;;;;6157611;28;80791;-76
2022/06/26 13:39:44;;;;;;;6.00;3.50;;;27.70;48.10;;;;;;6158159;28;80824;-73
2022/06/26 13:42:44;;;;;;;6.72;3.72;;;27.70;48.80;;;;;;6158248;28;80421;-66
2022/06/26 13:45:45;;;;;;;4.22;2.88;;;27.70;48.70;;;;;;6158224;28;80560;-67
2022/06/26 13:48:45;;;;;;;9.77;3.60;;;27.80;49.90;;;;;;6156679;28;80518;-66
2022/06/26 13:51:46;;;;;;;4.90;3.30;;;27.80;49.50;;;;;;6162304;28;80538;-67
2022/06/26 13:54:46;;;;;;;5.97;3.72;;;27.80;49.70;;;;;;6161669;28;80296;-66
2022/06/26 13:57:47;;;;;;;7.10;3.35;;;27.80;48.20;;;;;;6161095;28;80559;-69
2022/06/26 14:00:47;;;;;;;3.58;2.95;;;27.80;48.10;;;;;;6160562;28;80268;-68
2022/06/26 14:03:48;;;;;;;4.80;3.40;;;27.80;48.30;;;;;;6155578;28;81846;-69
2022/06/26 14:06:48;;;;;;;4.50;3.15;;;27.80;48.80;;;;;;6147586;28;80310;-69
2022/06/26 14:09:49;;;;;;;6.93;3.88;;;27.80;49.00;;;;;;6155932;28;80811;-69
2022/06/26 14:12:49;;;;;;;5.78;3.30;;;27.80;49.20;;;;;;6156021;28;81433;-69
2022/06/26 14:15:50;;;;;;;5.28;3.35;;;27.80;49.30;;;;;;6154012;28;81669;-69
2022/06/26 14:18:50;;;;;;;8.95;3.17;;;27.80;49.20;;;;;;6155228;28;80221;-69
2022/06/26 14:25:55;;;;;;;6.90;3.60;;;27.80;48.60;;;;;;6152702;28;80357;-70
2022/06/26 14:28:30;;;;;;;11.68;3.22;;;27.80;48.60;;;;;;6151342;28;81252;-68
2022/06/26 14:31:30;;;;;;;7.40;3.13;;;27.80;49.10;;;;;;6161232;28;80232;-68
2022/06/26 14:34:31;;;;;;;5.85;3.22;;;27.80;47.90;;;;;;6158665;28;80297;-68
2022/06/26 14:37:31;;;;;;;5.45;3.30;;;27.80;48.90;;;;;;6158732;28;81544;-68
2022/06/26 14:40:32;;;;;;;6.13;3.58;;;27.80;47.80;;;;;;6152348;28;83516;-69
2022/06/26 14:43:33;;;;;;;4.95;3.47;;;27.80;47.50;;;;;;6160959;28;80755;-70
2022/06/26 14:46:33;;;;;;;4.07;3.33;;;27.80;47.60;;;;;;6161214;28;80293;-69
2022/06/26 14:49:34;;;;;;;4.57;2.70;;;27.80;45.20;;;;;;6159567;28;87780;-68
2022/06/26 14:52:34;;;;;;;3.05;2.75;;;27.70;44.00;;;;;;6161763;28;80561;-70
2022/06/26 14:55:35;;;;;;;4.15;2.97;;;27.70;44.20;;;;;;6161157;28;80078;-69
2022/06/26 14:58:35;;;;;;;3.53;2.90;;;27.80;45.30;;;;;;6160155;28;80961;-70
2022/06/26 15:01:36;;;;;;;5.03;2.92;;;27.80;46.50;;;;;;6161163;28;80879;-79
2022/06/26 15:04:36;;;;;;;8.57;3.78;;;27.80;46.30;;;;;;6161893;28;80274;-78
2022/06/26 15:07:37;;;;;;;9.52;4.05;;;27.80;46.70;;;;;;6159820;28;80741;-72
2022/06/26 15:10:37;;;;;;;6.75;3.75;;;27.80;46.80;;;;;;6155787;28;80872;-71
2022/06/26 15:13:39;;;;;;;5.53;3.67;;;27.80;48.00;;;;;;6157784;28;80254;-71
2022/06/26 15:16:40;;;;;;;11.07;3.88;;;27.70;47.90;;;;;;6154983;28;80455;-70
2022/06/26 15:19:40;;;;;;;5.40;3.92;;;27.80;48.00;;;;;;6157853;28;80980;-73
2022/06/26 15:22:41;;;;;;;7.03;3.90;;;27.70;47.90;;;;;;6160674;28;80793;-72
2022/06/26 15:25:41;;;;;;;6.57;3.40;;;27.70;47.10;;;;;;6160367;28;80425;-76
2022/06/26 15:28:42;;;;;;;3.78;3.47;;;27.70;47.40;;;;;;6155359;28;81634;-73
2022/06/26 15:31:43;;;;;;;5.35;4.13;;;27.70;47.40;;;;;;6158774;28;80302;-75
2022/06/26 15:34:43;;;;;;;6.88;3.83;;;27.70;47.90;;;;;;6159922;28;80722;-71
2022/06/26 15:37:44;;;;;;;5.55;3.42;;;27.70;48.20;;;;;;6159897;28;80515;-73
2022/06/26 15:40:44;;;;;;;5.65;3.55;;;27.70;48.30;;;;;;6160361;28;80379;-74
2022/06/26 15:43:44;;;;;;;8.05;4.00;;;27.70;48.60;;;;;;6155629;28;81092;-70
2022/06/26 15:46:45;;;;;;;6.15;3.90;;;27.70;50.10;;;;;;6154624;28;81517;-72
2022/06/26 15:49:45;;;;;;;9.50;3.72;;;27.70;50.10;;;;;;6159258;28;80569;-72
2022/06/26 15:52:46;;;;;;;5.18;4.07;;;27.70;49.30;;;;;;6157123;28;81158;-72
2022/06/26 15:55:46;;;;;;;5.00;3.35;;;27.70;49.50;;;;;;6158875;28;81687;-75